sensor_id;sensor_type;location;lat;lon;timestamp;temperature;humidity
22299;DHT22;11317;51.072;17.036;2022-09-21T00:01:30;8.70;99.90
22299;DHT22;11317;51.072;17.036;2022-09-21T00:03:58;8.50;99.90
22299;DHT22;11317;51.072;17.036;2022-09-21T00:06:26;8.70;99.90
22299;DHT22;11317;51.072;17.036;2022-09-21T00:11:24;8.40;99.90
22299;DHT22;11317;51.072;17.036;2022-09-21T00:13:53;8.50;99.90
22299;DHT22;11317;51.072;17.036;2022-09-21T00:16:20;8.30;99.90
22299;DHT22;11317;51.072;17.036;2022-09-21T00:21:14;8.30;99.90
22299;DHT22;11317;51.072;17.036;2022-09-21T00:23:41;8.30;99.90
22299;DHT22;11317;51.072;17.036;2022-09-21T00:26:11;7.70;99.90
22299;DHT22;11317;51.072;17.036;2022-09-21T00:28:37;8.50;99.90
22299;DHT22;11317;51.072;17.036;2022-09-21T00:31:06;8.40;99.90
22299;DHT22;11317;51.072;17.036;2022-09-21T00:36:06;8.30;99.90
22299;DHT22;11317;51.072;17.036;2022-09-21T00:38:32;8.30;99.90
22299;DHT22;11317;51.072;17.036;2022-09-21T00:43:33;8.20;99.90
22299;DHT22;11317;51.072;17.036;2022-09-21T00:46:03;8.30;99.90
22299;DHT22;11317;51.072;17.036;2022-09-21T00:48:29;8.40;99.90
22299;DHT22;11317;51.072;17.036;2022-09-21T00:50:59;8.30;99.90
22299;DHT22;11317;51.072;17.036;2022-09-21T00:53:27;8.30;99.90
22299;DHT22;11317;51.072;17.036;2022-09-21T00:55:55;8.40;99.90
22299;DHT22;11317;51.072;17.036;2022-09-21T00:58:29;8.10;99.90
22299;DHT22;11317;51.072;17.036;2022-09-21T01:00:57;8.20;99.90
22299;DHT22;11317;51.072;17.036;2022-09-21T01:03:24;8.20;99.90
22299;DHT22;11317;51.072;17.036;2022-09-21T01:05:49;8.20;99.90
22299;DHT22;11317;51.072;17.036;2022-09-21T01:08:16;8.50;99.90
22299;DHT22;11317;51.072;17.036;2022-09-21T01:16:06;8.50;99.90
22299;DHT22;11317;51.072;17.036;2022-09-21T01:18:50;8.30;99.90
22299;DHT22;11317;51.072;17.036;2022-09-21T01:21:24;8.20;99.90
22299;DHT22;11317;51.072;17.036;2022-09-21T01:30:00;8.90;99.90
22299;DHT22;11317;51.072;17.036;2022-09-21T01:35:21;8.10;99.90
22299;DHT22;11317;51.072;17.036;2022-09-21T01:38:08;7.70;99.90
22299;DHT22;11317;51.072;17.036;2022-09-21T01:40:41;8.00;99.90
22299;DHT22;11317;51.072;17.036;2022-09-21T01:43:11;8.10;99.90
22299;DHT22;11317;51.072;17.036;2022-09-21T01:45:42;8.00;99.90
22299;DHT22;11317;51.072;17.036;2022-09-21T01:48:09;8.20;99.90
22299;DHT22;11317;51.072;17.036;2022-09-21T01:50:49;8.20;99.90
22299;DHT22;11317;51.072;17.036;2022-09-21T01:53:47;8.10;99.90
22299;DHT22;11317;51.072;17.036;2022-09-21T01:56:22;8.10;99.90
22299;DHT22;11317;51.072;17.036;2022-09-21T01:58:58;8.30;99.90
22299;DHT22;11317;51.072;17.036;2022-09-21T02:01:29;7.90;99.90
22299;DHT22;11317;51.072;17.036;2022-09-21T02:04:10;8.10;99.90
22299;DHT22;11317;51.072;17.036;2022-09-21T02:06:39;8.00;99.90
22299;DHT22;11317;51.072;17.036;2022-09-21T02:09:07;7.90;99.90
22299;DHT22;11317;51.072;17.036;2022-09-21T02:11:34;8.10;99.90
22299;DHT22;11317;51.072;17.036;2022-09-21T02:14:12;8.10;99.90
22299;DHT22;11317;51.072;17.036;2022-09-21T02:16:43;8.50;99.90
22299;DHT22;11317;51.072;17.036;2022-09-21T02:24:41;8.10;99.90
22299;DHT22;11317;51.072;17.036;2022-09-21T02:32:42;8.70;99.90
22299;DHT22;11317;51.072;17.036;2022-09-21T02:35:24;8.00;99.90
22299;DHT22;11317;51.072;17.036;2022-09-21T02:38:06;8.20;99.90
22299;DHT22;11317;51.072;17.036;2022-09-21T02:40:40;8.00;99.90
22299;DHT22;11317;51.072;17.036;2022-09-21T02:43:18;8.20;99.90
22299;DHT22;11317;51.072;17.036;2022-09-21T02:46:00;8.60;99.90
22299;DHT22;11317;51.072;17.036;2022-09-21T02:48:33;8.20;99.90
22299;DHT22;11317;51.072;17.036;2022-09-21T02:51:06;8.40;99.90
22299;DHT22;11317;51.072;17.036;2022-09-21T02:53:35;8.20;99.90
22299;DHT22;11317;51.072;17.036;2022-09-21T02:56:03;8.30;99.90
22299;DHT22;11317;51.072;17.036;2022-09-21T02:58:37;7.70;99.90
22299;DHT22;11317;51.072;17.036;2022-09-21T03:01:06;8.30;99.90
22299;DHT22;11317;51.072;17.036;2022-09-21T03:03:33;8.00;99.90
22299;DHT22;11317;51.072;17.036;2022-09-21T03:05:59;8.30;99.90
22299;DHT22;11317;51.072;17.036;2022-09-21T03:08:27;8.50;99.90
22299;DHT22;11317;51.072;17.036;2022-09-21T03:10:52;9.30;99.90
22299;DHT22;11317;51.072;17.036;2022-09-21T03:13:18;8.20;99.90
22299;DHT22;11317;51.072;17.036;2022-09-21T03:15:44;8.50;99.90
22299;DHT22;11317;51.072;17.036;2022-09-21T03:18:11;8.60;99.90
22299;DHT22;11317;51.072;17.036;2022-09-21T03:20:38;8.90;99.90
22299;DHT22;11317;51.072;17.036;2022-09-21T03:23:04;8.80;99.90
22299;DHT22;11317;51.072;17.036;2022-09-21T03:27:58;8.40;99.90
22299;DHT22;11317;51.072;17.036;2022-09-21T03:30:24;8.70;99.90
22299;DHT22;11317;51.072;17.036;2022-09-21T03:32:51;9.00;99.90
22299;DHT22;11317;51.072;17.036;2022-09-21T03:35:21;8.60;99.90
22299;DHT22;11317;51.072;17.036;2022-09-21T03:37:48;9.10;99.90
22299;DHT22;11317;51.072;17.036;2022-09-21T03:40:15;8.80;99.90
22299;DHT22;11317;51.072;17.036;2022-09-21T03:42:41;8.70;99.90
22299;DHT22;11317;51.072;17.036;2022-09-21T03:45:08;8.80;99.90
22299;DHT22;11317;51.072;17.036;2022-09-21T03:47:34;9.10;99.90
22299;DHT22;11317;51.072;17.036;2022-09-21T03:52:26;8.50;99.90
22299;DHT22;11317;51.072;17.036;2022-09-21T03:59:45;8.90;99.90
22299;DHT22;11317;51.072;17.036;2022-09-21T04:02:10;8.60;99.90
22299;DHT22;11317;51.072;17.036;2022-09-21T04:04:36;8.90;99.90
22299;DHT22;11317;51.072;17.036;2022-09-21T04:09:29;9.00;99.90
22299;DHT22;11317;51.072;17.036;2022-09-21T04:14:21;8.90;99.90
22299;DHT22;11317;51.072;17.036;2022-09-21T04:21:41;9.20;99.90
22299;DHT22;11317;51.072;17.036;2022-09-21T04:24:06;8.80;99.90
22299;DHT22;11317;51.072;17.036;2022-09-21T04:26:33;9.20;99.90
22299;DHT22;11317;51.072;17.036;2022-09-21T04:29:00;8.90;99.90
22299;DHT22;11317;51.072;17.036;2022-09-21T04:31:27;8.70;99.90
22299;DHT22;11317;51.072;17.036;2022-09-21T04:33:54;9.40;99.90
22299;DHT22;11317;51.072;17.036;2022-09-21T04:36:21;8.90;99.90
22299;DHT22;11317;51.072;17.036;2022-09-21T04:38:47;8.80;99.90
22299;DHT22;11317;51.072;17.036;2022-09-21T04:41:14;9.00;99.90
22299;DHT22;11317;51.072;17.036;2022-09-21T04:43:44;8.90;99.90
22299;DHT22;11317;51.072;17.036;2022-09-21T04:46:12;9.00;99.90
22299;DHT22;11317;51.072;17.036;2022-09-21T04:48:39;9.20;99.90
22299;DHT22;11317;51.072;17.036;2022-09-21T04:51:05;9.40;99.90
22299;DHT22;11317;51.072;17.036;2022-09-21T04:53:33;8.80;99.90
22299;DHT22;11317;51.072;17.036;2022-09-21T04:55:59;9.00;99.90
22299;DHT22;11317;51.072;17.036;2022-09-21T04:58:25;9.20;99.90
22299;DHT22;11317;51.072;17.036;2022-09-21T05:00:52;9.20;99.90
22299;DHT22;11317;51.072;17.036;2022-09-21T05:03:22;9.10;99.90
22299;DHT22;11317;51.072;17.036;2022-09-21T05:05:54;8.70;99.90
22299;DHT22;11317;51.072;17.036;2022-09-21T05:08:22;9.20;99.90
22299;DHT22;11317;51.072;17.036;2022-09-21T05:11:10;9.20;99.90
22299;DHT22;11317;51.072;17.036;2022-09-21T05:13:38;9.50;99.90
22299;DHT22;11317;51.072;17.036;2022-09-21T05:16:06;9.40;99.90
22299;DHT22;11317;51.072;17.036;2022-09-21T05:18:34;9.30;99.90
22299;DHT22;11317;51.072;17.036;2022-09-21T05:21:01;9.40;99.90
22299;DHT22;11317;51.072;17.036;2022-09-21T05:23:28;9.60;99.90
22299;DHT22;11317;51.072;17.036;2022-09-21T05:25:55;9.30;99.90
22299;DHT22;11317;51.072;17.036;2022-09-21T05:28:22;9.60;99.90
22299;DHT22;11317;51.072;17.036;2022-09-21T05:30:57;9.40;99.90
22299;DHT22;11317;51.072;17.036;2022-09-21T05:33:25;9.50;99.90
22299;DHT22;11317;51.072;17.036;2022-09-21T05:41:14;9.60;99.90
22299;DHT22;11317;51.072;17.036;2022-09-21T05:43:40;9.40;99.90
22299;DHT22;11317;51.072;17.036;2022-09-21T05:46:32;9.70;99.90
22299;DHT22;11317;51.072;17.036;2022-09-21T05:49:08;9.60;99.90
22299;DHT22;11317;51.072;17.036;2022-09-21T05:54:16;9.20;99.90
22299;DHT22;11317;51.072;17.036;2022-09-21T05:57:09;9.60;99.90
22299;DHT22;11317;51.072;17.036;2022-09-21T06:00:00;9.80;99.90
22299;DHT22;11317;51.072;17.036;2022-09-21T06:02:45;9.70;99.90
22299;DHT22;11317;51.072;17.036;2022-09-21T06:05:14;9.90;99.90
22299;DHT22;11317;51.072;17.036;2022-09-21T06:07:41;9.70;99.90
22299;DHT22;11317;51.072;17.036;2022-09-21T06:10:08;9.90;99.90
22299;DHT22;11317;51.072;17.036;2022-09-21T06:12:34;10.20;99.90
22299;DHT22;11317;51.072;17.036;2022-09-21T06:14:59;10.00;99.90
22299;DHT22;11317;51.072;17.036;2022-09-21T06:19:52;9.80;99.90
22299;DHT22;11317;51.072;17.036;2022-09-21T06:22:18;10.20;99.90
22299;DHT22;11317;51.072;17.036;2022-09-21T06:29:36;10.60;99.90
22299;DHT22;11317;51.072;17.036;2022-09-21T06:34:29;10.50;99.90
22299;DHT22;11317;51.072;17.036;2022-09-21T06:36:55;9.80;99.90
22299;DHT22;11317;51.072;17.036;2022-09-21T06:39:21;10.70;99.90
22299;DHT22;11317;51.072;17.036;2022-09-21T06:41:47;10.00;99.90
22299;DHT22;11317;51.072;17.036;2022-09-21T06:44:12;10.00;99.90
22299;DHT22;11317;51.072;17.036;2022-09-21T06:53:57;9.90;99.90
22299;DHT22;11317;51.072;17.036;2022-09-21T06:56:24;9.50;99.90
22299;DHT22;11317;51.072;17.036;2022-09-21T06:58:50;9.50;99.90
22299;DHT22;11317;51.072;17.036;2022-09-21T07:01:17;9.40;99.90
22299;DHT22;11317;51.072;17.036;2022-09-21T07:03:43;10.00;99.90
22299;DHT22;11317;51.072;17.036;2022-09-21T07:06:10;9.90;99.90
22299;DHT22;11317;51.072;17.036;2022-09-21T07:11:04;9.90;99.90
22299;DHT22;11317;51.072;17.036;2022-09-21T07:13:30;9.30;99.90
22299;DHT22;11317;51.072;17.036;2022-09-21T07:18:23;9.70;99.90
22299;DHT22;11317;51.072;17.036;2022-09-21T07:20:48;9.90;99.90
22299;DHT22;11317;51.072;17.036;2022-09-21T07:23:17;10.30;99.90
22299;DHT22;11317;51.072;17.036;2022-09-21T07:25:45;10.50;99.90
22299;DHT22;11317;51.072;17.036;2022-09-21T07:28:11;10.90;99.90
22299;DHT22;11317;51.072;17.036;2022-09-21T07:30:39;11.00;99.90
22299;DHT22;11317;51.072;17.036;2022-09-21T07:33:06;10.80;99.90
22299;DHT22;11317;51.072;17.036;2022-09-21T07:35:32;11.30;99.90
22299;DHT22;11317;51.072;17.036;2022-09-21T07:37:59;11.20;99.90
22299;DHT22;11317;51.072;17.036;2022-09-21T07:42:51;11.30;99.90
22299;DHT22;11317;51.072;17.036;2022-09-21T07:45:18;11.20;99.90
22299;DHT22;11317;51.072;17.036;2022-09-21T07:47:44;11.20;99.90
22299;DHT22;11317;51.072;17.036;2022-09-21T07:50:10;12.20;99.90
22299;DHT22;11317;51.072;17.036;2022-09-21T07:55:03;12.00;99.90
22299;DHT22;11317;51.072;17.036;2022-09-21T08:00:14;12.20;99.90
22299;DHT22;11317;51.072;17.036;2022-09-21T08:02:39;11.90;99.90
22299;DHT22;11317;51.072;17.036;2022-09-21T08:07:32;12.30;99.90
22299;DHT22;11317;51.072;17.036;2022-09-21T08:10:01;12.10;99.90
22299;DHT22;11317;51.072;17.036;2022-09-21T08:12:27;12.00;99.90
22299;DHT22;11317;51.072;17.036;2022-09-21T08:14:53;12.50;99.90
22299;DHT22;11317;51.072;17.036;2022-09-21T08:19:45;12.50;99.90
22299;DHT22;11317;51.072;17.036;2022-09-21T08:22:10;12.60;98.50
22299;DHT22;11317;51.072;17.036;2022-09-21T08:24:36;12.70;99.40
22299;DHT22;11317;51.072;17.036;2022-09-21T08:27:04;12.40;98.10
22299;DHT22;11317;51.072;17.036;2022-09-21T08:36:48;12.40;99.90
22299;DHT22;11317;51.072;17.036;2022-09-21T08:41:59;12.30;99.90
22299;DHT22;11317;51.072;17.036;2022-09-21T08:44:50;12.90;99.90
22299;DHT22;11317;51.072;17.036;2022-09-21T08:47:43;12.60;99.90
22299;DHT22;11317;51.072;17.036;2022-09-21T08:50:36;13.10;99.90
22299;DHT22;11317;51.072;17.036;2022-09-21T08:53:17;13.40;83.20
22299;DHT22;11317;51.072;17.036;2022-09-21T08:55:43;13.20;78.80
22299;DHT22;11317;51.072;17.036;2022-09-21T08:58:24;13.30;88.40
22299;DHT22;11317;51.072;17.036;2022-09-21T09:01:44;13.10;82.80
22299;DHT22;11317;51.072;17.036;2022-09-21T09:20:31;13.60;31.40
22299;DHT22;11317;51.072;17.036;2022-09-21T09:23:25;15.20;5.80
22299;DHT22;11317;51.072;17.036;2022-09-21T09:25:55;15.30;1.00
22299;DHT22;11317;51.072;17.036;2022-09-21T09:28:29;17.70;1.00
22299;DHT22;11317;51.072;17.036;2022-09-21T09:36:43;22.20;1.00
22299;DHT22;11317;51.072;17.036;2022-09-21T09:39:13;22.20;1.00
22299;DHT22;11317;51.072;17.036;2022-09-21T09:52:33;21.60;1.00
22299;DHT22;11317;51.072;17.036;2022-09-21T09:55:00;22.50;1.00
22299;DHT22;11317;51.072;17.036;2022-09-21T09:57:31;21.80;1.00
22299;DHT22;11317;51.072;17.036;2022-09-21T10:00:01;21.90;1.00
22299;DHT22;11317;51.072;17.036;2022-09-21T10:02:28;22.30;1.00
22299;DHT22;11317;51.072;17.036;2022-09-21T10:05:02;22.10;1.00
22299;DHT22;11317;51.072;17.036;2022-09-21T10:07:40;21.70;1.00
22299;DHT22;11317;51.072;17.036;2022-09-21T10:10:22;21.30;1.00
22299;DHT22;11317;51.072;17.036;2022-09-21T10:12:50;21.30;1.00
22299;DHT22;11317;51.072;17.036;2022-09-21T10:15:17;21.10;1.00
22299;DHT22;11317;51.072;17.036;2022-09-21T10:17:47;21.60;50.60
22299;DHT22;11317;51.072;17.036;2022-09-21T10:20:16;21.80;1.00
22299;DHT22;11317;51.072;17.036;2022-09-21T10:22:51;22.20;1.00
22299;DHT22;11317;51.072;17.036;2022-09-21T10:25:19;22.20;1.00
22299;DHT22;11317;51.072;17.036;2022-09-21T10:27:50;21.90;1.00
22299;DHT22;11317;51.072;17.036;2022-09-21T10:30:36;22.60;1.00
22299;DHT22;11317;51.072;17.036;2022-09-21T10:33:14;22.50;1.00
22299;DHT22;11317;51.072;17.036;2022-09-21T10:35:52;23.20;1.00
22299;DHT22;11317;51.072;17.036;2022-09-21T10:38:19;22.80;1.00
22299;DHT22;11317;51.072;17.036;2022-09-21T10:40:52;22.50;1.00
22299;DHT22;11317;51.072;17.036;2022-09-21T10:43:34;22.40;1.00
22299;DHT22;11317;51.072;17.036;2022-09-21T10:53:33;21.50;1.00
22299;DHT22;11317;51.072;17.036;2022-09-21T10:56:15;21.60;1.00
22299;DHT22;11317;51.072;17.036;2022-09-21T11:01:48;20.50;1.00
22299;DHT22;11317;51.072;17.036;2022-09-21T11:04:19;20.20;1.00
22299;DHT22;11317;51.072;17.036;2022-09-21T11:06:50;19.30;1.00
22299;DHT22;11317;51.072;17.036;2022-09-21T11:09:36;20.40;92.10
22299;DHT22;11317;51.072;17.036;2022-09-21T11:21:16;19.50;15.70
22299;DHT22;11317;51.072;17.036;2022-09-21T11:24:00;19.40;1.00
22299;DHT22;11317;51.072;17.036;2022-09-21T11:26:53;19.20;99.90
22299;DHT22;11317;51.072;17.036;2022-09-21T11:58:50;18.20;99.90
22299;DHT22;11317;51.072;17.036;2022-09-21T12:01:50;17.80;99.90
22299;DHT22;11317;51.072;17.036;2022-09-21T12:12:46;17.60;36.80
22299;DHT22;11317;51.072;17.036;2022-09-21T12:15:25;17.50;7.50
22299;DHT22;11317;51.072;17.036;2022-09-21T12:20:30;18.30;99.90
22299;DHT22;11317;51.072;17.036;2022-09-21T12:23:02;18.30;1.00
22299;DHT22;11317;51.072;17.036;2022-09-21T12:25:36;18.50;1.00
22299;DHT22;11317;51.072;17.036;2022-09-21T12:28:26;18.60;1.00
22299;DHT22;11317;51.072;17.036;2022-09-21T12:31:05;18.30;1.00
22299;DHT22;11317;51.072;17.036;2022-09-21T12:33:50;18.20;1.00
22299;DHT22;11317;51.072;17.036;2022-09-21T12:36:27;18.20;1.00
22299;DHT22;11317;51.072;17.036;2022-09-21T12:41:41;18.20;1.00
22299;DHT22;11317;51.072;17.036;2022-09-21T12:44:31;18.30;1.00
22299;DHT22;11317;51.072;17.036;2022-09-21T12:47:05;18.50;1.00
22299;DHT22;11317;51.072;17.036;2022-09-21T12:49:47;18.50;1.00
22299;DHT22;11317;51.072;17.036;2022-09-21T12:52:25;18.40;99.90
22299;DHT22;11317;51.072;17.036;2022-09-21T12:55:31;18.10;1.00
22299;DHT22;11317;51.072;17.036;2022-09-21T12:58:21;18.30;99.90
22299;DHT22;11317;51.072;17.036;2022-09-21T13:03:39;18.50;99.90
22299;DHT22;11317;51.072;17.036;2022-09-21T13:06:41;18.00;1.00
22299;DHT22;11317;51.072;17.036;2022-09-21T13:09:14;18.60;99.90
22299;DHT22;11317;51.072;17.036;2022-09-21T13:11:55;17.80;1.00
22299;DHT22;11317;51.072;17.036;2022-09-21T13:14:28;17.60;1.00
22299;DHT22;11317;51.072;17.036;2022-09-21T13:16:59;18.00;1.00
22299;DHT22;11317;51.072;17.036;2022-09-21T13:19:32;18.10;99.90
22299;DHT22;11317;51.072;17.036;2022-09-21T13:25:03;17.70;1.00
22299;DHT22;11317;51.072;17.036;2022-09-21T13:27:56;17.90;1.00
22299;DHT22;11317;51.072;17.036;2022-09-21T13:30:34;17.50;1.00
22299;DHT22;11317;51.072;17.036;2022-09-21T13:33:02;17.50;99.90
22299;DHT22;11317;51.072;17.036;2022-09-21T13:52:01;17.50;99.90
22299;DHT22;11317;51.072;17.036;2022-09-21T13:54:32;17.50;86.50
22299;DHT22;11317;51.072;17.036;2022-09-21T13:59:47;17.20;1.00
22299;DHT22;11317;51.072;17.036;2022-09-21T14:02:30;17.30;99.90
22299;DHT22;11317;51.072;17.036;2022-09-21T14:05:18;17.00;1.00
22299;DHT22;11317;51.072;17.036;2022-09-21T14:08:00;16.50;1.00
22299;DHT22;11317;51.072;17.036;2022-09-21T14:10:27;16.50;99.90
22299;DHT22;11317;51.072;17.036;2022-09-21T14:12:54;16.30;1.00
22299;DHT22;11317;51.072;17.036;2022-09-21T14:20:34;16.40;1.00
22299;DHT22;11317;51.072;17.036;2022-09-21T14:23:25;16.30;1.00
22299;DHT22;11317;51.072;17.036;2022-09-21T14:25:54;17.20;1.00
22299;DHT22;11317;51.072;17.036;2022-09-21T14:28:37;17.00;1.00
22299;DHT22;11317;51.072;17.036;2022-09-21T14:31:17;17.20;99.90
22299;DHT22;11317;51.072;17.036;2022-09-21T14:33:59;17.10;99.90
22299;DHT22;11317;51.072;17.036;2022-09-21T14:36:46;17.10;99.90
22299;DHT22;11317;51.072;17.036;2022-09-21T14:39:30;17.00;99.90
22299;DHT22;11317;51.072;17.036;2022-09-21T14:42:00;17.00;99.90
22299;DHT22;11317;51.072;17.036;2022-09-21T14:44:29;17.10;99.90
22299;DHT22;11317;51.072;17.036;2022-09-21T14:47:02;17.10;42.90
22299;DHT22;11317;51.072;17.036;2022-09-21T14:49:40;17.10;90.80
22299;DHT22;11317;51.072;17.036;2022-09-21T15:00:16;16.60;99.90
22299;DHT22;11317;51.072;17.036;2022-09-21T15:05:37;17.10;98.30
22299;DHT22;11317;51.072;17.036;2022-09-21T15:16:43;16.90;99.90
22299;DHT22;11317;51.072;17.036;2022-09-21T15:21:49;16.50;99.90
22299;DHT22;11317;51.072;17.036;2022-09-21T15:24:23;16.30;99.90
22299;DHT22;11317;51.072;17.036;2022-09-21T15:26:53;16.40;99.90
22299;DHT22;11317;51.072;17.036;2022-09-21T15:29:27;16.20;1.00
22299;DHT22;11317;51.072;17.036;2022-09-21T15:34:20;15.90;1.00
22299;DHT22;11317;51.072;17.036;2022-09-21T15:36:47;16.30;1.00
22299;DHT22;11317;51.072;17.036;2022-09-21T15:39:30;15.80;1.00
22299;DHT22;11317;51.072;17.036;2022-09-21T15:42:19;15.70;1.00
22299;DHT22;11317;51.072;17.036;2022-09-21T15:44:48;15.50;1.00
22299;DHT22;11317;51.072;17.036;2022-09-21T15:47:20;15.40;1.00
22299;DHT22;11317;51.072;17.036;2022-09-21T15:49:46;15.40;99.90
22299;DHT22;11317;51.072;17.036;2022-09-21T15:52:31;15.10;99.90
22299;DHT22;11317;51.072;17.036;2022-09-21T15:55:00;15.10;1.00
22299;DHT22;11317;51.072;17.036;2022-09-21T15:57:37;14.40;1.00
22299;DHT22;11317;51.072;17.036;2022-09-21T16:00:26;14.80;1.00
22299;DHT22;11317;51.072;17.036;2022-09-21T16:05:53;14.60;5.10
22299;DHT22;11317;51.072;17.036;2022-09-21T16:08:30;14.70;1.00
22299;DHT22;11317;51.072;17.036;2022-09-21T16:16:20;14.40;1.00
22299;DHT22;11317;51.072;17.036;2022-09-21T16:18:51;14.30;99.90
22299;DHT22;11317;51.072;17.036;2022-09-21T16:21:33;14.20;1.00
22299;DHT22;11317;51.072;17.036;2022-09-21T16:24:20;14.20;1.00
22299;DHT22;11317;51.072;17.036;2022-09-21T16:26:59;13.50;99.90
22299;DHT22;11317;51.072;17.036;2022-09-21T16:29:39;14.00;99.90
22299;DHT22;11317;51.072;17.036;2022-09-21T16:34:49;13.80;1.00
22299;DHT22;11317;51.072;17.036;2022-09-21T16:39:57;13.70;1.00
22299;DHT22;11317;51.072;17.036;2022-09-21T16:42:24;14.10;1.00
22299;DHT22;11317;51.072;17.036;2022-09-21T16:44:53;13.30;99.90
22299;DHT22;11317;51.072;17.036;2022-09-21T16:47:25;13.40;42.70
22299;DHT22;11317;51.072;17.036;2022-09-21T16:49:56;13.30;99.90
22299;DHT22;11317;51.072;17.036;2022-09-21T16:52:25;13.20;99.90
22299;DHT22;11317;51.072;17.036;2022-09-21T16:54:55;12.70;1.00
22299;DHT22;11317;51.072;17.036;2022-09-21T16:57:24;13.00;1.00
22299;DHT22;11317;51.072;17.036;2022-09-21T16:59:51;13.00;1.00
22299;DHT22;11317;51.072;17.036;2022-09-21T17:04:44;12.80;1.00
22299;DHT22;11317;51.072;17.036;2022-09-21T17:07:11;13.20;1.00
22299;DHT22;11317;51.072;17.036;2022-09-21T17:09:39;12.90;25.50
22299;DHT22;11317;51.072;17.036;2022-09-21T17:12:10;13.10;99.90
22299;DHT22;11317;51.072;17.036;2022-09-21T17:14:36;13.00;99.90
22299;DHT22;11317;51.072;17.036;2022-09-21T17:17:15;13.10;1.00
22299;DHT22;11317;51.072;17.036;2022-09-21T17:19:42;13.50;1.00
22299;DHT22;11317;51.072;17.036;2022-09-21T17:22:09;13.00;99.90
22299;DHT22;11317;51.072;17.036;2022-09-21T17:24:45;13.10;1.00
22299;DHT22;11317;51.072;17.036;2022-09-21T17:27:12;13.50;99.90
22299;DHT22;11317;51.072;17.036;2022-09-21T17:32:14;13.10;1.00
22299;DHT22;11317;51.072;17.036;2022-09-21T17:37:06;12.70;13.10
22299;DHT22;11317;51.072;17.036;2022-09-21T17:39:34;12.60;1.00
22299;DHT22;11317;51.072;17.036;2022-09-21T17:42:20;12.90;1.00
22299;DHT22;11317;51.072;17.036;2022-09-21T17:44:57;12.90;1.00
22299;DHT22;11317;51.072;17.036;2022-09-21T17:47:27;12.90;1.00
22299;DHT22;11317;51.072;17.036;2022-09-21T17:52:41;12.80;1.00
22299;DHT22;11317;51.072;17.036;2022-09-21T17:55:25;12.60;1.00
22299;DHT22;11317;51.072;17.036;2022-09-21T18:01:04;12.70;1.00
22299;DHT22;11317;51.072;17.036;2022-09-21T18:03:36;12.60;1.00
22299;DHT22;11317;51.072;17.036;2022-09-21T18:06:09;12.60;1.00
22299;DHT22;11317;51.072;17.036;2022-09-21T18:08:36;12.30;1.00
22299;DHT22;11317;51.072;17.036;2022-09-21T18:26:44;12.00;1.00
22299;DHT22;11317;51.072;17.036;2022-09-21T18:29:26;12.50;1.00
22299;DHT22;11317;51.072;17.036;2022-09-21T18:35:23;12.60;1.00
22299;DHT22;11317;51.072;17.036;2022-09-21T18:38:14;12.20;1.00
22299;DHT22;11317;51.072;17.036;2022-09-21T18:41:09;12.20;1.00
22299;DHT22;11317;51.072;17.036;2022-09-21T18:43:41;12.20;1.00
22299;DHT22;11317;51.072;17.036;2022-09-21T18:46:41;12.10;1.00
22299;DHT22;11317;51.072;17.036;2022-09-21T18:52:12;12.10;1.00
22299;DHT22;11317;51.072;17.036;2022-09-21T18:54:40;12.00;1.00
22299;DHT22;11317;51.072;17.036;2022-09-21T18:57:11;12.20;1.00
22299;DHT22;11317;51.072;17.036;2022-09-21T18:59:39;12.20;1.00
22299;DHT22;11317;51.072;17.036;2022-09-21T19:02:15;12.30;1.00
22299;DHT22;11317;51.072;17.036;2022-09-21T19:04:45;11.60;1.00
22299;DHT22;11317;51.072;17.036;2022-09-21T19:07:34;11.80;1.00
22299;DHT22;11317;51.072;17.036;2022-09-21T19:10:43;12.00;4.40
22299;DHT22;11317;51.072;17.036;2022-09-21T19:18:27;12.20;27.10
22299;DHT22;11317;51.072;17.036;2022-09-21T19:26:09;12.20;26.70
22299;DHT22;11317;51.072;17.036;2022-09-21T19:31:17;13.90;27.40
22299;DHT22;11317;51.072;17.036;2022-09-21T19:33:46;12.20;19.90
22299;DHT22;11317;51.072;17.036;2022-09-21T19:36:16;12.10;25.70
22299;DHT22;11317;51.072;17.036;2022-09-21T19:41:30;12.10;14.90
22299;DHT22;11317;51.072;17.036;2022-09-21T19:49:53;12.00;28.30
22299;DHT22;11317;51.072;17.036;2022-09-21T19:52:28;11.90;47.30
22299;DHT22;11317;51.072;17.036;2022-09-21T19:54:55;12.00;43.70
22299;DHT22;11317;51.072;17.036;2022-09-21T19:57:40;11.80;69.50
22299;DHT22;11317;51.072;17.036;2022-09-21T20:03:15;12.00;47.30
22299;DHT22;11317;51.072;17.036;2022-09-21T20:08:12;11.90;60.90
22299;DHT22;11317;51.072;17.036;2022-09-21T20:18:44;11.70;66.50
22299;DHT22;11317;51.072;17.036;2022-09-21T20:21:12;11.90;66.40
22299;DHT22;11317;51.072;17.036;2022-09-21T20:23:39;11.90;85.00
22299;DHT22;11317;51.072;17.036;2022-09-21T20:26:22;12.90;92.40
22299;DHT22;11317;51.072;17.036;2022-09-21T20:28:49;11.80;76.60
22299;DHT22;11317;51.072;17.036;2022-09-21T20:31:17;11.80;72.40
22299;DHT22;11317;51.072;17.036;2022-09-21T20:36:09;12.00;86.20
22299;DHT22;11317;51.072;17.036;2022-09-21T20:43:29;12.30;90.90
22299;DHT22;11317;51.072;17.036;2022-09-21T20:50:49;11.90;75.60
22299;DHT22;11317;51.072;17.036;2022-09-21T20:53:16;12.30;75.60
22299;DHT22;11317;51.072;17.036;2022-09-21T20:55:51;11.90;64.40
22299;DHT22;11317;51.072;17.036;2022-09-21T21:05:37;11.90;70.10
22299;DHT22;11317;51.072;17.036;2022-09-21T21:08:04;11.90;56.70
22299;DHT22;11317;51.072;17.036;2022-09-21T21:10:31;12.00;53.50
22299;DHT22;11317;51.072;17.036;2022-09-21T21:12:57;13.90;56.00
22299;DHT22;11317;51.072;17.036;2022-09-21T21:20:16;12.00;21.30
22299;DHT22;11317;51.072;17.036;2022-09-21T21:22:48;12.00;21.20
22299;DHT22;11317;51.072;17.036;2022-09-21T21:25:14;12.00;14.60
22299;DHT22;11317;51.072;17.036;2022-09-21T21:30:07;12.00;27.50
22299;DHT22;11317;51.072;17.036;2022-09-21T21:32:34;11.90;25.30
22299;DHT22;11317;51.072;17.036;2022-09-21T21:35:00;11.50;48.40
22299;DHT22;11317;51.072;17.036;2022-09-21T21:37:27;11.90;24.60
22299;DHT22;11317;51.072;17.036;2022-09-21T21:39:53;11.90;25.70
22299;DHT22;11317;51.072;17.036;2022-09-21T21:42:21;12.00;49.00
22299;DHT22;11317;51.072;17.036;2022-09-21T21:44:47;11.90;31.50
22299;DHT22;11317;51.072;17.036;2022-09-21T21:54:33;11.70;47.90
22299;DHT22;11317;51.072;17.036;2022-09-21T21:57:00;11.60;79.00
22299;DHT22;11317;51.072;17.036;2022-09-21T21:59:26;11.70;90.50
22299;DHT22;11317;51.072;17.036;2022-09-21T22:01:52;12.00;94.90
22299;DHT22;11317;51.072;17.036;2022-09-21T22:04:19;11.50;97.80
22299;DHT22;11317;51.072;17.036;2022-09-21T22:06:45;12.30;99.90
22299;DHT22;11317;51.072;17.036;2022-09-21T22:09:11;11.60;99.90
22299;DHT22;11317;51.072;17.036;2022-09-21T22:11:37;10.90;99.90